createdAt,value
2018-11-06T00:01:44.818Z,9.82
2018-11-06T00:04:14.317Z,9.81
2018-11-06T00:06:43.829Z,9.74
2018-11-06T00:09:13.323Z,9.67
2018-11-06T00:11:42.686Z,9.76
2018-11-06T00:14:12.140Z,9.74
2018-11-06T00:16:42.835Z,9.75
2018-11-06T00:19:12.370Z,9.69
2018-11-06T00:21:41.886Z,9.63
2018-11-06T00:24:11.652Z,9.71
2018-11-06T00:26:41.105Z,9.66
2018-11-06T00:29:10.498Z,9.71
2018-11-06T00:31:39.929Z,9.72
2018-11-06T00:34:09.630Z,9.67
2018-11-06T00:36:40.008Z,9.69
2018-11-06T00:39:10.029Z,9.71
2018-11-06T00:41:39.976Z,9.74
2018-11-06T00:44:09.575Z,9.77
2018-11-06T00:46:39.016Z,9.75
2018-11-06T00:49:08.500Z,9.81
2018-11-06T00:51:38.106Z,9.76
2018-11-06T00:54:08.394Z,9.71
2018-11-06T00:56:37.867Z,9.75
2018-11-06T00:59:07.424Z,9.76
2018-11-06T01:01:36.837Z,9.79
2018-11-06T01:04:10.049Z,9.79
2018-11-06T01:06:39.526Z,9.67
2018-11-06T01:09:12.521Z,9.67
2018-11-06T01:11:43.088Z,9.64
2018-11-06T01:14:12.605Z,9.66
2018-11-06T01:18:11.358Z,9.63
2018-11-06T01:20:41.405Z,9.57
2018-11-06T01:23:10.942Z,9.55
2018-11-06T01:25:40.557Z,9.51
2018-11-06T01:28:09.978Z,9.58
2018-11-06T01:30:39.481Z,9.60
2018-11-06T01:33:09.063Z,9.60
2018-11-06T01:35:38.387Z,9.59
2018-11-06T01:38:07.744Z,9.57
2018-11-06T01:40:37.378Z,9.58
2018-11-06T01:43:06.813Z,9.54
2018-11-06T01:45:36.181Z,9.47
2018-11-06T01:48:05.807Z,9.55
2018-11-06T01:50:35.204Z,9.53
2018-11-06T01:53:04.775Z,9.50
2018-11-06T01:55:34.218Z,9.47
2018-11-06T01:58:03.576Z,9.45
2018-11-06T02:00:32.929Z,9.44
2018-11-06T02:03:02.426Z,9.45
2018-11-06T02:05:31.743Z,9.43
2018-11-06T02:08:01.096Z,9.39
2018-11-06T02:10:30.534Z,9.39
2018-11-06T02:12:59.987Z,9.38
2018-11-06T02:15:35.895Z,9.39
2018-11-06T02:18:05.820Z,9.42
2018-11-06T02:20:35.273Z,9.42
2018-11-06T02:23:05.951Z,9.40
2018-11-06T02:25:35.314Z,9.44
2018-11-06T02:28:04.681Z,9.48
2018-11-06T02:30:34.209Z,9.50
2018-11-06T02:33:03.591Z,9.37
2018-11-06T02:35:33.013Z,9.38
2018-11-06T02:38:02.639Z,9.35
2018-11-06T02:40:32.018Z,9.34
2018-11-06T02:43:01.401Z,9.40
2018-11-06T02:45:30.986Z,9.42
2018-11-06T02:48:00.363Z,9.42
2018-11-06T02:50:29.791Z,9.41
2018-11-06T02:52:59.301Z,9.40
2018-11-06T02:55:28.746Z,9.46
2018-11-06T02:57:58.152Z,9.44
2018-11-06T03:00:27.835Z,9.51
2018-11-06T03:02:57.328Z,9.50
2018-11-06T03:05:26.764Z,9.46
2018-11-06T03:07:56.182Z,9.43
2018-11-06T03:10:25.586Z,9.38
2018-11-06T03:12:54.878Z,9.34
2018-11-06T03:15:24.456Z,9.29
2018-11-06T03:17:53.867Z,9.30
2018-11-06T03:20:23.308Z,9.26
2018-11-06T03:22:52.746Z,9.20
2018-11-06T03:25:22.207Z,9.15
2018-11-06T03:27:51.590Z,9.16
2018-11-06T03:30:21.161Z,9.16
2018-11-06T03:32:50.563Z,9.15
2018-11-06T03:35:19.918Z,9.16
2018-11-06T03:37:49.295Z,9.17
2018-11-06T03:40:18.671Z,9.19
2018-11-06T03:42:48.095Z,9.21
2018-11-06T03:45:18.985Z,9.22
2018-11-06T03:47:48.372Z,9.25
2018-11-06T03:51:47.213Z,9.33
2018-11-06T03:54:16.745Z,9.19
2018-11-06T03:56:46.121Z,9.22
2018-11-06T03:59:15.518Z,9.14
2018-11-06T04:01:44.800Z,9.13
2018-11-06T04:04:14.241Z,9.12
2018-11-06T04:06:43.937Z,9.12
2018-11-06T04:09:13.875Z,9.14
2018-11-06T04:11:43.312Z,9.12
2018-11-06T04:14:12.761Z,9.15
2018-11-06T04:16:42.183Z,9.16
2018-11-06T04:19:11.731Z,9.19
2018-11-06T04:21:42.036Z,9.23
2018-11-06T04:24:13.700Z,9.25
2018-11-06T04:26:43.984Z,9.21
2018-11-06T04:29:13.433Z,9.22
2018-11-06T04:31:42.919Z,9.22
2018-11-06T04:34:12.526Z,9.21
2018-11-06T04:36:41.951Z,9.31
2018-11-06T04:39:11.969Z,9.35
2018-11-06T04:41:41.419Z,9.36
2018-11-06T04:44:10.989Z,9.39
2018-11-06T04:46:40.564Z,9.37
2018-11-06T04:49:10.579Z,9.42
2018-11-06T04:51:41.122Z,9.41
2018-11-06T04:54:10.533Z,9.46
2018-11-06T04:56:40.776Z,9.48
2018-11-06T04:59:10.182Z,9.48
2018-11-06T05:01:39.691Z,9.49
2018-11-06T05:04:09.897Z,9.55
2018-11-06T05:06:39.314Z,9.64
2018-11-06T05:09:09.644Z,9.61
2018-11-06T05:11:39.327Z,9.53
2018-11-06T05:14:09.462Z,9.45
2018-11-06T05:16:38.959Z,9.48
2018-11-06T05:19:08.404Z,9.52
2018-11-06T05:21:37.851Z,9.42
2018-11-06T05:24:07.299Z,9.36
2018-11-06T05:26:36.750Z,9.39
2018-11-06T05:29:06.173Z,9.40
2018-11-06T05:31:35.575Z,9.37
2018-11-06T05:34:06.475Z,9.26
2018-11-06T05:36:35.867Z,9.21
2018-11-06T05:39:09.461Z,9.08
2018-11-06T05:41:38.924Z,9.06
2018-11-06T05:44:08.479Z,8.99
2018-11-06T05:46:38.013Z,9.02
2018-11-06T05:49:07.584Z,9.06
2018-11-06T05:51:37.385Z,9.05
2018-11-06T05:54:12.024Z,8.99
2018-11-06T05:56:41.522Z,8.93
2018-11-06T05:59:10.877Z,9.01
2018-11-06T06:01:40.346Z,8.93
2018-11-06T06:04:09.822Z,8.96
2018-11-06T06:06:44.806Z,8.92
2018-11-06T06:09:14.268Z,8.84
2018-11-06T06:11:43.954Z,8.89
2018-11-06T06:14:13.594Z,8.93
2018-11-06T06:16:44.610Z,8.93
2018-11-06T06:19:14.519Z,8.94
2018-11-06T06:21:45.000Z,8.94
2018-11-06T06:24:14.417Z,8.91
2018-11-06T06:26:43.838Z,8.90
2018-11-06T06:29:13.404Z,8.93
2018-11-06T06:31:44.065Z,8.89
2018-11-06T06:34:13.763Z,8.88
2018-11-06T06:36:43.583Z,8.87
2018-11-06T06:39:13.089Z,8.93
2018-11-06T06:41:42.784Z,8.84
2018-11-06T06:44:12.236Z,8.88
2018-11-06T06:46:41.873Z,8.79
2018-11-06T06:49:11.404Z,8.77
2018-11-06T06:51:40.881Z,8.84
2018-11-06T06:54:10.385Z,8.82
2018-11-06T06:56:39.744Z,8.80
2018-11-06T06:59:09.163Z,8.72
2018-11-06T07:01:38.566Z,8.73
2018-11-06T07:04:08.046Z,8.73
2018-11-06T07:06:37.837Z,8.66
2018-11-06T07:09:09.437Z,8.70
2018-11-06T07:11:39.786Z,8.65
2018-11-06T07:14:11.244Z,8.72
2018-11-06T07:16:42.902Z,8.78
2018-11-06T07:19:14.362Z,8.78
2018-11-06T07:21:45.800Z,8.77
2018-11-06T07:24:17.666Z,8.78
2018-11-06T07:26:49.417Z,8.77
2018-11-06T07:29:21.302Z,8.60
2018-11-06T07:31:53.855Z,8.81
2018-11-06T07:34:24.866Z,8.84
2018-11-06T07:36:56.560Z,8.93
2018-11-06T07:39:27.449Z,8.97
2018-11-06T07:41:59.253Z,8.81
2018-11-06T07:44:31.425Z,8.84
2018-11-06T07:47:03.859Z,8.90
2018-11-06T07:49:35.099Z,9.04
2018-11-06T07:52:07.581Z,9.18
2018-11-06T07:54:38.420Z,9.16
2018-11-06T07:57:10.995Z,9.16
2018-11-06T07:59:43.186Z,8.94
2018-11-06T08:02:15.463Z,8.84
2018-11-06T08:04:46.353Z,8.73
2018-11-06T08:07:17.739Z,8.74
2018-11-06T08:09:49.387Z,8.72
2018-11-06T08:12:22.008Z,8.67
2018-11-06T08:14:54.503Z,8.68
2018-11-06T08:17:26.231Z,8.82
2018-11-06T08:19:57.884Z,8.86
2018-11-06T08:22:29.732Z,8.81
2018-11-06T08:25:01.516Z,8.69
2018-11-06T08:27:33.467Z,8.55
2018-11-06T08:30:05.176Z,8.61
2018-11-06T08:32:37.204Z,8.64
2018-11-06T08:35:10.542Z,8.65
2018-11-06T08:37:42.079Z,8.59
2018-11-06T08:40:14.416Z,8.56
2018-11-06T08:42:46.183Z,8.59
2018-11-06T08:45:18.829Z,8.62
2018-11-06T08:47:50.647Z,8.75
2018-11-06T08:50:21.785Z,8.75
2018-11-06T08:52:51.250Z,8.82
2018-11-06T08:55:20.883Z,8.94
2018-11-06T08:57:54.680Z,8.98
2018-11-06T09:00:24.120Z,9.03
2018-11-06T09:02:53.520Z,9.17
2018-11-06T09:05:22.983Z,9.27
2018-11-06T09:07:52.503Z,9.31
2018-11-06T09:10:21.878Z,9.43
2018-11-06T09:12:51.308Z,9.52
2018-11-06T09:15:20.768Z,9.59
2018-11-06T09:17:50.113Z,9.66
2018-11-06T09:20:19.678Z,9.67
2018-11-06T09:22:49.021Z,9.70
2018-11-06T09:25:19.529Z,9.68
2018-11-06T09:27:50.624Z,9.77
2018-11-06T09:30:20.500Z,9.77
2018-11-06T09:32:49.919Z,9.87
2018-11-06T09:35:19.322Z,9.95
2018-11-06T09:37:49.446Z,9.94
2018-11-06T09:40:19.910Z,10.00
2018-11-06T09:42:49.270Z,10.08
2018-11-06T09:45:19.298Z,10.05
2018-11-06T09:47:48.785Z,10.08
2018-11-06T09:50:19.532Z,10.12
2018-11-06T09:52:49.054Z,10.15
2018-11-06T09:55:19.007Z,10.10
2018-11-06T09:57:48.495Z,10.15
2018-11-06T10:00:20.096Z,10.10
2018-11-06T10:02:49.745Z,10.09
2018-11-06T10:05:19.102Z,10.10
2018-11-06T10:07:52.680Z,10.00
2018-11-06T10:10:22.214Z,9.93
2018-11-06T10:12:51.610Z,10.02
2018-11-06T10:15:21.775Z,10.04
2018-11-06T10:17:51.675Z,9.98
2018-11-06T10:20:21.797Z,10.13
2018-11-06T10:22:51.279Z,10.07
2018-11-06T10:25:20.673Z,9.99
2018-11-06T10:27:50.207Z,10.10
2018-11-06T10:30:20.432Z,10.20
2018-11-06T10:32:49.767Z,10.30
2018-11-06T10:35:19.373Z,10.34
2018-11-06T10:37:49.898Z,10.46
2018-11-06T10:40:21.772Z,10.40
2018-11-06T10:42:51.444Z,10.45
2018-11-06T10:45:21.215Z,10.42
2018-11-06T10:47:50.660Z,10.52
2018-11-06T10:50:20.163Z,10.53
2018-11-06T10:52:49.871Z,10.57
2018-11-06T10:55:19.549Z,10.60
2018-11-06T10:57:48.990Z,10.65
2018-11-06T11:00:24.664Z,10.63
2018-11-06T11:02:59.592Z,10.49
2018-11-06T11:05:30.393Z,10.42
2018-11-06T11:11:05.791Z,10.45
2018-11-06T11:13:35.357Z,10.37
2018-11-06T11:16:06.915Z,10.46
2018-11-06T11:18:36.520Z,10.38
2018-11-06T11:21:06.381Z,10.32
2018-11-06T11:23:36.089Z,10.32
2018-11-06T11:26:05.641Z,10.29
2018-11-06T11:28:35.464Z,10.37
2018-11-06T11:31:05.701Z,10.32
2018-11-06T11:33:35.236Z,10.33
2018-11-06T11:36:04.722Z,10.34
2018-11-06T11:38:34.345Z,10.50
2018-11-06T11:41:04.864Z,10.61
2018-11-06T11:43:34.631Z,10.70
2018-11-06T11:46:04.620Z,10.68
2018-11-06T11:48:34.087Z,10.60
2018-11-06T11:51:03.531Z,10.61
2018-11-06T11:53:33.126Z,10.67
2018-11-06T11:56:02.686Z,10.75
2018-11-06T11:58:32.250Z,10.83
2018-11-06T12:01:01.962Z,10.93
2018-11-06T12:03:31.486Z,10.96
2018-11-06T12:06:00.909Z,11.09
2018-11-06T12:08:31.081Z,11.16
2018-11-06T12:11:03.926Z,11.32
2018-11-06T12:13:33.818Z,11.47
2018-11-06T12:16:03.279Z,11.30
2018-11-06T12:18:32.756Z,11.56
2018-11-06T12:21:02.455Z,11.70
2018-11-06T12:23:31.841Z,11.75
2018-11-06T12:26:02.327Z,11.73
2018-11-06T12:28:31.799Z,11.73
2018-11-06T12:31:01.224Z,11.67
2018-11-06T12:33:30.941Z,11.82
2018-11-06T12:36:01.850Z,11.67
2018-11-06T12:38:31.379Z,11.52
2018-11-06T12:41:00.944Z,11.53
2018-11-06T12:43:30.785Z,11.72
2018-11-06T12:46:00.054Z,11.84
2018-11-06T12:48:29.543Z,11.82
2018-11-06T12:51:01.170Z,11.91
2018-11-06T12:53:30.946Z,12.01
2018-11-06T12:56:00.480Z,11.88
2018-11-06T12:58:30.094Z,11.96
2018-11-06T13:01:00.548Z,12.00
2018-11-06T13:03:30.088Z,12.18
2018-11-06T13:05:59.676Z,12.03
2018-11-06T13:08:29.284Z,12.06
2018-11-06T13:10:58.871Z,11.99
2018-11-06T13:13:28.288Z,12.01
2018-11-06T13:15:57.650Z,12.10
2018-11-06T13:18:28.247Z,12.06
2018-11-06T13:20:57.778Z,12.14
2018-11-06T13:26:17.145Z,11.90
2018-11-06T13:28:46.511Z,11.78
2018-11-06T13:31:15.859Z,11.60
2018-11-06T13:33:45.530Z,11.79
2018-11-06T13:36:14.958Z,11.86
2018-11-06T13:38:44.542Z,11.83
2018-11-06T13:41:14.362Z,11.85
2018-11-06T13:43:47.050Z,11.89
2018-11-06T13:46:16.462Z,11.78
2018-11-06T13:48:45.955Z,11.89
2018-11-06T13:51:15.871Z,11.83
2018-11-06T13:53:45.753Z,11.80
2018-11-06T13:56:15.607Z,11.89
2018-11-06T13:58:45.180Z,11.79
2018-11-06T14:01:14.711Z,11.85
2018-11-06T14:03:44.285Z,11.76
2018-11-06T14:06:19.700Z,11.77
2018-11-06T14:08:49.300Z,11.75
2018-11-06T14:11:18.902Z,11.59
2018-11-06T14:13:49.189Z,11.66
2018-11-06T14:16:20.715Z,11.54
2018-11-06T14:18:50.280Z,11.44
2018-11-06T14:21:19.733Z,11.39
2018-11-06T14:23:49.170Z,11.32
2018-11-06T14:26:18.826Z,11.36
2018-11-06T14:28:48.242Z,11.27
2018-11-06T14:31:17.837Z,11.32
2018-11-06T14:33:53.088Z,11.17
2018-11-06T14:36:22.855Z,10.97
2018-11-06T14:38:52.391Z,11.03
2018-11-06T14:41:21.885Z,11.20
2018-11-06T14:43:51.266Z,11.15
2018-11-06T14:46:23.730Z,11.23
2018-11-06T14:48:53.383Z,11.10
2018-11-06T14:51:23.748Z,10.95
2018-11-06T14:53:53.311Z,10.94
2018-11-06T14:56:22.878Z,10.89
2018-11-06T14:58:58.880Z,10.84
2018-11-06T15:01:28.764Z,10.90
2018-11-06T15:03:58.255Z,10.77
2018-11-06T15:06:29.027Z,10.84
2018-11-06T15:08:58.437Z,10.88
2018-11-06T15:11:28.040Z,10.63
2018-11-06T15:13:58.189Z,10.69
2018-11-06T15:16:30.990Z,10.62
2018-11-06T15:19:00.909Z,10.63
2018-11-06T15:21:30.466Z,10.61
2018-11-06T15:24:00.084Z,10.56
2018-11-06T15:26:30.053Z,10.46
2018-11-06T15:28:59.505Z,10.46
2018-11-06T15:31:29.132Z,10.46
2018-11-06T15:33:58.774Z,10.47
2018-11-06T15:36:28.519Z,10.49
2018-11-06T15:38:58.148Z,10.42
2018-11-06T15:41:28.721Z,10.41
2018-11-06T15:43:58.218Z,10.28
2018-11-06T15:49:05.788Z,10.22
2018-11-06T15:51:36.315Z,10.18
2018-11-06T15:54:06.352Z,10.25
2018-11-06T15:56:36.084Z,10.37
2018-11-06T15:59:06.149Z,10.45
2018-11-06T16:01:36.325Z,10.40
2018-11-06T16:04:05.819Z,10.34
2018-11-06T16:06:35.740Z,10.22
2018-11-06T16:09:07.099Z,10.10
2018-11-06T16:11:37.788Z,10.10
2018-11-06T16:14:07.342Z,10.00
2018-11-06T16:16:37.013Z,10.02
2018-11-06T16:19:07.493Z,10.08
2018-11-06T16:21:37.076Z,10.14
2018-11-06T16:24:06.755Z,9.99
2018-11-06T16:26:37.359Z,10.07
2018-11-06T16:29:07.131Z,10.15
2018-11-06T16:31:36.677Z,10.08
2018-11-06T16:34:07.155Z,10.03
2018-11-06T16:36:37.608Z,10.19
2018-11-06T16:39:09.989Z,10.14
2018-11-06T16:41:41.211Z,10.09
2018-11-06T16:44:10.718Z,10.07
2018-11-06T16:46:40.297Z,10.19
2018-11-06T16:49:09.780Z,10.24
2018-11-06T16:51:39.289Z,10.19
2018-11-06T16:54:09.144Z,10.22
2018-11-06T16:56:38.691Z,10.06
2018-11-06T16:59:08.631Z,10.08
2018-11-06T17:01:38.152Z,9.97
2018-11-06T17:04:07.841Z,10.03
2018-11-06T17:06:42.765Z,10.12
2018-11-06T17:09:12.708Z,10.01
2018-11-06T17:11:42.109Z,10.00
2018-11-06T17:14:11.532Z,9.85
2018-11-06T17:16:40.982Z,9.91
2018-11-06T17:19:11.774Z,9.86
2018-11-06T17:21:41.893Z,9.74
2018-11-06T17:24:11.549Z,9.74
2018-11-06T17:26:40.926Z,9.89
2018-11-06T17:29:10.464Z,9.95
2018-11-06T17:31:40.570Z,9.92
2018-11-06T17:34:11.840Z,9.80
2018-11-06T17:36:41.655Z,9.76
2018-11-06T17:39:14.363Z,9.80
2018-11-06T17:41:44.332Z,9.89
2018-11-06T17:44:14.076Z,9.94
2018-11-06T17:46:44.918Z,9.81
2018-11-06T17:49:14.481Z,9.77
2018-11-06T17:51:43.968Z,9.86
2018-11-06T17:54:13.564Z,9.87
2018-11-06T17:56:43.035Z,9.94
2018-11-06T17:59:12.342Z,10.10
2018-11-06T18:01:42.544Z,10.29
2018-11-06T18:04:12.038Z,10.34
2018-11-06T18:06:41.324Z,10.42
2018-11-06T18:09:12.596Z,10.45
2018-11-06T18:11:42.293Z,10.45
2018-11-06T18:14:11.714Z,10.26
2018-11-06T18:16:41.571Z,10.13
2018-11-06T18:19:11.134Z,10.01
2018-11-06T18:21:40.882Z,10.10
2018-11-06T18:24:10.523Z,9.98
2018-11-06T18:26:39.855Z,10.05
2018-11-06T18:29:09.286Z,9.98
2018-11-06T18:31:38.726Z,9.66
2018-11-06T18:34:08.143Z,9.74
2018-11-06T18:36:37.622Z,9.63
2018-11-06T18:39:10.219Z,9.59
2018-11-06T18:41:39.755Z,9.68
2018-11-06T18:44:11.778Z,9.69
2018-11-06T18:46:41.209Z,9.76
2018-11-06T18:49:10.618Z,9.79
2018-11-06T18:51:40.784Z,9.81
2018-11-06T18:54:10.283Z,9.84
2018-11-06T18:56:39.945Z,9.88
2018-11-06T18:59:09.409Z,9.85
2018-11-06T19:01:39.757Z,9.85
2018-11-06T19:04:09.406Z,9.81
2018-11-06T19:06:39.595Z,9.87
2018-11-06T19:09:11.110Z,9.76
2018-11-06T19:11:41.734Z,9.76
2018-11-06T19:14:11.654Z,9.83
2018-11-06T19:16:41.274Z,9.80
2018-11-06T19:19:10.756Z,9.69
2018-11-06T19:21:40.174Z,9.77
2018-11-06T19:24:10.197Z,9.68
2018-11-06T19:26:39.874Z,9.74
2018-11-06T19:29:11.556Z,9.82
2018-11-06T19:31:40.998Z,9.88
2018-11-06T19:34:10.466Z,9.87
2018-11-06T19:36:41.410Z,9.95
2018-11-06T19:39:14.702Z,9.91
2018-11-06T19:41:44.161Z,9.91
2018-11-06T19:44:13.606Z,9.83
2018-11-06T19:46:45.319Z,9.88
2018-11-06T19:49:15.113Z,9.90
2018-11-06T19:51:44.832Z,9.77
2018-11-06T19:54:14.982Z,9.85
2018-11-06T19:56:45.605Z,9.80
2018-11-06T19:59:18.885Z,9.79
2018-11-06T20:04:54.917Z,9.80
2018-11-06T20:07:24.442Z,9.83
2018-11-06T20:09:54.234Z,9.92
2018-11-06T20:12:32.050Z,9.93
2018-11-06T20:15:06.349Z,10.02
2018-11-06T20:17:36.109Z,10.06
2018-11-06T20:20:08.648Z,10.02
2018-11-06T20:22:41.218Z,10.07
2018-11-06T20:25:12.341Z,10.06
2018-11-06T20:27:42.965Z,10.04
2018-11-06T20:30:16.358Z,10.10
2018-11-06T20:32:46.658Z,10.06
2018-11-06T20:35:18.037Z,10.03
2018-11-06T20:37:55.763Z,10.05
2018-11-06T20:40:27.164Z,10.08
2018-11-06T20:42:57.129Z,10.06
2018-11-06T20:45:26.720Z,10.10
2018-11-06T20:47:58.719Z,10.11
2018-11-06T20:50:28.336Z,10.12
2018-11-06T20:52:58.596Z,10.10
2018-11-06T20:55:28.585Z,10.04
2018-11-06T20:57:58.306Z,10.17
2018-11-06T21:00:31.282Z,10.19
2018-11-06T21:03:02.825Z,10.27
2018-11-06T21:05:32.563Z,10.28
2018-11-06T21:08:02.067Z,10.16
2018-11-06T21:10:32.832Z,10.16
2018-11-06T21:13:02.682Z,10.15
2018-11-06T21:15:32.197Z,10.17
2018-11-06T21:18:01.791Z,10.23
2018-11-06T21:20:31.609Z,10.25
2018-11-06T21:23:01.266Z,10.25
2018-11-06T21:25:31.653Z,10.20
2018-11-06T21:28:01.100Z,10.19
2018-11-06T21:30:30.566Z,10.12
2018-11-06T21:33:00.479Z,10.16
2018-11-06T21:35:30.042Z,10.18
2018-11-06T21:37:59.574Z,10.17
2018-11-06T21:41:33.915Z,10.08
2018-11-06T21:44:03.518Z,10.10
2018-11-06T21:46:33.149Z,9.96
2018-11-06T21:49:03.404Z,10.05
2018-11-06T21:51:32.765Z,9.96
2018-11-06T21:54:02.184Z,9.95
2018-11-06T21:56:31.570Z,10.02
2018-11-06T21:59:01.190Z,10.03
2018-11-06T22:01:30.752Z,10.02
2018-11-06T22:04:00.196Z,10.03
2018-11-06T22:06:29.802Z,9.95
2018-11-06T22:08:59.302Z,10.00
2018-11-06T22:11:29.212Z,9.94
2018-11-06T22:13:58.699Z,9.97
2018-11-06T22:16:28.110Z,10.02
2018-11-06T22:18:57.771Z,10.06
2018-11-06T22:21:27.223Z,10.03
2018-11-06T22:23:58.149Z,10.03
2018-11-06T22:26:27.784Z,10.02
2018-11-06T22:28:57.200Z,10.05
2018-11-06T22:31:27.625Z,10.07
2018-11-06T22:33:56.958Z,10.09
2018-11-06T22:36:26.659Z,10.03
2018-11-06T22:38:56.075Z,10.03
2018-11-06T22:41:25.523Z,10.06
2018-11-06T22:43:55.256Z,10.06
2018-11-06T22:46:26.279Z,10.07
2018-11-06T22:48:55.671Z,10.09
2018-11-06T22:51:25.177Z,10.05
2018-11-06T22:53:55.267Z,10.08
2018-11-06T22:56:24.768Z,10.07
2018-11-06T22:58:54.239Z,10.05
2018-11-06T23:01:24.621Z,10.03
2018-11-06T23:03:54.882Z,10.05
2018-11-06T23:06:24.697Z,10.00
2018-11-06T23:08:54.008Z,10.00
2018-11-06T23:11:23.324Z,10.01
2018-11-06T23:13:52.719Z,9.98
2018-11-06T23:16:22.088Z,10.01
2018-11-06T23:18:51.513Z,10.01
2018-11-06T23:21:20.922Z,9.94
2018-11-06T23:23:50.373Z,9.98
2018-11-06T23:26:19.780Z,9.97
2018-11-06T23:28:49.405Z,9.92
2018-11-06T23:31:18.850Z,9.88
2018-11-06T23:33:48.232Z,9.90
2018-11-06T23:36:18.008Z,9.82
2018-11-06T23:38:47.362Z,9.88
2018-11-06T23:41:16.761Z,9.86
2018-11-06T23:43:46.208Z,9.72
2018-11-06T23:46:15.667Z,9.81
2018-11-06T23:48:45.086Z,9.82
2018-11-06T23:51:14.718Z,9.81
2018-11-06T23:53:44.226Z,9.76
2018-11-06T23:56:13.779Z,9.76
2018-11-06T23:58:43.171Z,9.79
